createdAt,value
2019-01-20T00:00:55.179Z,93.21
2019-01-20T00:03:24.705Z,93.36
2019-01-20T00:05:54.232Z,93.55
2019-01-20T00:08:23.787Z,93.65
2019-01-20T00:10:53.302Z,93.74
2019-01-20T00:13:22.833Z,93.80
2019-01-20T00:15:52.377Z,93.84
2019-01-20T00:18:21.899Z,93.77
2019-01-20T00:20:51.415Z,93.76
2019-01-20T00:23:20.963Z,93.80
2019-01-20T00:25:50.484Z,93.77
2019-01-20T00:28:20.010Z,93.85
2019-01-20T00:30:49.559Z,94.01
2019-01-20T00:33:19.424Z,94.17
2019-01-20T00:35:49.122Z,94.20
2019-01-20T00:38:18.692Z,94.27
2019-01-20T00:40:48.267Z,94.25
2019-01-20T00:43:17.798Z,94.36
2019-01-20T00:45:47.346Z,94.38
2019-01-20T00:48:16.866Z,94.47
2019-01-20T00:50:46.392Z,94.49
2019-01-20T00:53:16.125Z,94.60
2019-01-20T00:55:45.648Z,94.71
2019-01-20T00:58:15.179Z,94.67
2019-01-20T01:00:44.716Z,94.69
2019-01-20T01:03:14.315Z,94.69
2019-01-20T01:05:43.829Z,94.68
2019-01-20T01:08:13.863Z,94.62
2019-01-20T01:10:43.463Z,94.68
2019-01-20T01:13:12.990Z,94.70
2019-01-20T01:15:42.532Z,94.81
2019-01-20T01:18:12.056Z,94.90
2019-01-20T01:20:41.663Z,94.96
2019-01-20T01:23:11.830Z,95.06
2019-01-20T01:25:41.365Z,95.25
2019-01-20T01:28:11.024Z,95.31
2019-01-20T01:30:40.594Z,95.42
2019-01-20T01:33:10.190Z,95.47
2019-01-20T01:35:39.763Z,95.60
2019-01-20T01:38:09.274Z,95.68
2019-01-20T01:40:38.800Z,95.67
2019-01-20T01:43:08.316Z,95.73
2019-01-20T01:45:38.036Z,95.75
2019-01-20T01:48:07.567Z,95.69
2019-01-20T01:50:37.092Z,95.76
2019-01-20T01:53:06.628Z,95.73
2019-01-20T01:55:36.154Z,95.77
2019-01-20T01:58:05.748Z,95.80
2019-01-20T02:00:35.439Z,95.76
2019-01-20T02:03:04.964Z,95.78
2019-01-20T02:05:34.502Z,95.76
2019-01-20T02:08:04.256Z,95.75
2019-01-20T02:10:33.780Z,95.79
2019-01-20T02:13:03.486Z,95.89
2019-01-20T02:15:33.193Z,95.97
2019-01-20T02:18:02.707Z,96.04
2019-01-20T02:20:32.227Z,96.00
2019-01-20T02:23:01.897Z,95.89
2019-01-20T02:25:31.426Z,95.84
2019-01-20T02:28:01.119Z,95.95
2019-01-20T02:30:31.026Z,96.05
2019-01-20T02:33:00.557Z,96.12
2019-01-20T02:35:30.080Z,96.24
2019-01-20T02:37:59.616Z,96.31
2019-01-20T02:40:29.136Z,96.34
2019-01-20T02:42:58.662Z,96.38
2019-01-20T02:45:28.241Z,96.41
2019-01-20T02:47:57.756Z,96.43
2019-01-20T02:50:27.349Z,96.41
2019-01-20T02:52:56.903Z,96.31
2019-01-20T02:55:26.424Z,96.27
2019-01-20T02:57:55.944Z,96.39
2019-01-20T03:00:25.753Z,96.44
2019-01-20T03:02:55.350Z,96.48
2019-01-20T03:05:25.222Z,96.51
2019-01-20T03:07:54.769Z,96.64
2019-01-20T03:10:24.297Z,96.70
2019-01-20T03:12:53.820Z,96.65
2019-01-20T03:15:23.353Z,96.62
2019-01-20T03:17:53.025Z,96.63
2019-01-20T03:20:23.318Z,96.57
2019-01-20T03:22:53.131Z,96.46
2019-01-20T03:25:22.646Z,96.43
2019-01-20T03:27:52.184Z,96.51
2019-01-20T03:30:23.130Z,96.61
2019-01-20T03:32:52.693Z,96.72
2019-01-20T03:35:25.940Z,96.86
2019-01-20T03:37:55.565Z,97.02
2019-01-20T03:40:25.081Z,97.03
2019-01-20T03:42:54.626Z,97.10
2019-01-20T03:45:24.237Z,97.01
2019-01-20T03:47:53.767Z,96.87
2019-01-20T03:50:23.278Z,96.72
2019-01-20T03:52:52.830Z,96.68
2019-01-20T03:55:22.348Z,96.74
2019-01-20T03:57:51.945Z,96.83
2019-01-20T04:00:24.265Z,96.88
2019-01-20T04:02:56.228Z,96.92
2019-01-20T04:05:25.824Z,97.10
2019-01-20T04:07:55.360Z,97.19
2019-01-20T04:10:24.950Z,97.29
2019-01-20T04:12:54.469Z,97.26
2019-01-20T04:15:24.091Z,97.30
2019-01-20T04:17:53.616Z,97.33
2019-01-20T04:20:23.144Z,97.39
2019-01-20T04:22:52.811Z,97.37
2019-01-20T04:25:22.403Z,97.38
2019-01-20T04:27:51.926Z,97.45
2019-01-20T04:30:22.046Z,97.47
2019-01-20T04:32:51.576Z,97.48
2019-01-20T04:35:21.270Z,97.38
2019-01-20T04:37:50.820Z,97.24
2019-01-20T04:40:22.649Z,97.27
2019-01-20T04:42:52.178Z,97.27
2019-01-20T04:45:21.793Z,97.40
2019-01-20T04:47:51.345Z,97.38
2019-01-20T04:50:23.581Z,97.32
2019-01-20T04:52:53.625Z,97.29
2019-01-20T04:55:23.292Z,97.33
2019-01-20T04:57:53.891Z,97.34
2019-01-20T05:00:26.153Z,97.31
2019-01-20T05:02:55.685Z,97.33
2019-01-20T05:05:25.537Z,97.30
2019-01-20T05:07:55.513Z,97.37
2019-01-20T05:10:25.037Z,97.46
2019-01-20T05:12:54.570Z,97.51
2019-01-20T05:15:24.830Z,97.48
2019-01-20T05:17:54.394Z,97.46
2019-01-20T05:20:24.189Z,97.42
2019-01-20T05:22:53.861Z,97.37
2019-01-20T05:25:23.385Z,97.53
2019-01-20T05:27:53.086Z,97.68
2019-01-20T05:30:24.765Z,97.75
2019-01-20T05:32:54.291Z,97.78
2019-01-20T05:35:23.812Z,97.84
2019-01-20T05:37:53.523Z,98.00
2019-01-20T05:40:23.482Z,98.07
2019-01-20T05:42:53.008Z,97.87
2019-01-20T05:45:24.761Z,97.68
2019-01-20T05:47:54.278Z,97.64
2019-01-20T05:50:23.811Z,97.62
2019-01-20T05:52:53.525Z,97.66
2019-01-20T05:55:23.046Z,97.69
2019-01-20T05:57:52.570Z,97.77
2019-01-20T06:00:27.792Z,97.82
2019-01-20T06:02:57.324Z,97.81
2019-01-20T06:05:26.838Z,97.81
2019-01-20T06:07:56.496Z,97.91
2019-01-20T06:10:26.026Z,97.95
2019-01-20T06:12:55.550Z,97.90
2019-01-20T06:15:25.323Z,97.92
2019-01-20T06:17:54.900Z,98.01
2019-01-20T06:20:24.600Z,98.10
2019-01-20T06:22:54.375Z,98.18
2019-01-20T06:25:23.897Z,98.20
2019-01-20T06:27:53.421Z,98.34
2019-01-20T06:30:27.136Z,98.43
2019-01-20T06:32:56.657Z,98.26
2019-01-20T06:35:26.181Z,98.22
2019-01-20T06:37:55.887Z,98.21
2019-01-20T06:40:25.454Z,98.20
2019-01-20T06:43:01.795Z,98.30
2019-01-20T06:45:26.275Z,98.37
2019-01-20T06:47:55.805Z,98.42
2019-01-20T06:50:25.327Z,98.44
2019-01-20T06:52:54.894Z,98.36
2019-01-20T06:55:24.399Z,98.26
2019-01-20T06:57:53.927Z,98.16
2019-01-20T07:00:24.617Z,98.15
2019-01-20T07:02:55.713Z,98.23
2019-01-20T07:05:25.393Z,98.29
2019-01-20T07:07:55.116Z,98.29
2019-01-20T07:10:24.711Z,98.30
2019-01-20T07:12:54.707Z,98.42
2019-01-20T07:15:24.878Z,98.53
2019-01-20T07:17:54.516Z,98.58
2019-01-20T07:20:24.239Z,98.52
2019-01-20T07:22:53.832Z,98.49
2019-01-20T07:25:23.360Z,98.46
2019-01-20T07:27:52.897Z,98.28
2019-01-20T07:30:23.257Z,98.20
2019-01-20T07:32:52.780Z,98.25
2019-01-20T07:35:22.556Z,98.24
2019-01-20T07:37:52.145Z,98.21
2019-01-20T07:40:23.177Z,98.18
2019-01-20T07:42:52.716Z,98.21
2019-01-20T07:45:22.510Z,98.12
2019-01-20T07:47:52.103Z,98.00
2019-01-20T07:50:24.080Z,98.05
2019-01-20T07:52:53.588Z,97.91
2019-01-20T07:55:23.238Z,97.61
2019-01-20T07:57:52.926Z,96.89
2019-01-20T08:00:24.733Z,95.96
2019-01-20T08:02:54.285Z,94.92
2019-01-20T08:05:23.834Z,93.82
2019-01-20T08:07:53.363Z,92.60
2019-01-20T08:10:26.370Z,91.30
2019-01-20T08:12:55.963Z,89.79
2019-01-20T08:15:25.549Z,88.27
2019-01-20T08:17:55.062Z,87.01
2019-01-20T08:20:26.462Z,85.81
2019-01-20T08:22:55.971Z,84.36
2019-01-20T08:25:25.716Z,83.10
2019-01-20T08:27:55.250Z,81.86
2019-01-20T08:30:26.723Z,80.72
2019-01-20T08:32:56.412Z,79.55
2019-01-20T08:35:26.529Z,78.59
2019-01-20T08:37:56.041Z,77.64
2019-01-20T08:40:28.364Z,76.52
2019-01-20T08:42:58.246Z,75.48
2019-01-20T08:45:56.558Z,74.55
2019-01-20T08:48:26.766Z,73.47
2019-01-20T08:50:57.381Z,72.53
2019-01-20T08:53:28.351Z,71.66
2019-01-20T08:55:58.106Z,70.63
2019-01-20T08:58:27.620Z,69.45
2019-01-20T09:00:57.140Z,68.33
2019-01-20T09:03:26.800Z,67.30
2019-01-20T09:05:56.316Z,66.33
2019-01-20T09:08:25.831Z,65.82
2019-01-20T09:10:55.353Z,64.79
2019-01-20T09:13:24.869Z,63.68
2019-01-20T09:15:54.379Z,62.52
2019-01-20T09:18:23.909Z,61.75
2019-01-20T09:20:53.538Z,61.09
2019-01-20T09:23:23.008Z,60.36
2019-01-20T09:25:52.965Z,60.08
2019-01-20T09:28:22.473Z,59.77
2019-01-20T09:30:51.998Z,59.51
2019-01-20T09:33:24.661Z,58.97
2019-01-20T09:35:52.770Z,58.21
2019-01-20T09:38:22.274Z,57.45
2019-01-20T09:40:51.807Z,56.85
2019-01-20T09:43:21.326Z,56.16
2019-01-20T09:45:52.109Z,55.52
2019-01-20T09:48:21.645Z,55.05
2019-01-20T09:50:51.169Z,54.79
2019-01-20T09:53:20.685Z,54.49
2019-01-20T09:55:50.226Z,54.08
2019-01-20T09:58:19.748Z,53.96
2019-01-20T10:00:49.265Z,53.91
2019-01-20T10:03:18.926Z,53.77
2019-01-20T10:05:48.433Z,53.62
2019-01-20T10:08:19.482Z,53.86
2019-01-20T10:10:49.016Z,53.81
2019-01-20T10:13:18.526Z,53.44
2019-01-20T10:15:48.043Z,53.38
2019-01-20T10:18:17.587Z,53.25
2019-01-20T10:20:47.095Z,53.44
2019-01-20T10:23:16.625Z,53.63
2019-01-20T10:25:46.510Z,54.16
2019-01-20T10:28:16.291Z,54.37
2019-01-20T10:30:45.799Z,54.48
2019-01-20T10:33:15.336Z,54.65
2019-01-20T10:35:46.482Z,54.62
2019-01-20T10:38:16.298Z,54.67
2019-01-20T10:40:45.992Z,54.84
2019-01-20T10:43:15.575Z,55.21
2019-01-20T10:45:45.193Z,55.80
2019-01-20T10:48:14.720Z,56.52
2019-01-20T10:50:44.292Z,57.41
2019-01-20T10:53:13.801Z,58.08
2019-01-20T10:55:43.450Z,58.85
2019-01-20T10:58:12.967Z,59.58
2019-01-20T11:00:42.837Z,60.05
2019-01-20T11:03:12.481Z,60.30
2019-01-20T11:05:41.987Z,60.75
2019-01-20T11:08:11.637Z,61.17
2019-01-20T11:10:41.561Z,61.78
2019-01-20T11:13:11.073Z,62.43
2019-01-20T11:15:40.581Z,63.12
2019-01-20T11:18:11.560Z,63.96
2019-01-20T11:20:41.080Z,64.66
2019-01-20T11:23:10.877Z,65.18
2019-01-20T11:25:41.938Z,65.61
2019-01-20T11:28:11.748Z,65.94
2019-01-20T11:30:41.378Z,66.32
2019-01-20T11:33:10.943Z,66.77
2019-01-20T11:35:40.504Z,67.26
2019-01-20T11:38:10.267Z,67.75
2019-01-20T11:40:40.079Z,68.35
2019-01-20T11:43:09.591Z,68.98
2019-01-20T11:45:39.143Z,69.43
2019-01-20T11:48:09.163Z,69.88
2019-01-20T11:50:38.690Z,70.23
2019-01-20T11:53:08.307Z,70.60
2019-01-20T11:55:37.830Z,70.94
2019-01-20T11:58:07.435Z,71.24
2019-01-20T12:00:37.450Z,71.46
2019-01-20T12:03:07.218Z,71.81
2019-01-20T12:05:36.759Z,72.08
2019-01-20T12:08:07.498Z,72.24
2019-01-20T12:10:37.065Z,72.44
2019-01-20T12:13:11.253Z,72.54
2019-01-20T12:15:40.728Z,72.63
2019-01-20T12:18:10.353Z,72.79
2019-01-20T12:20:40.007Z,72.87
2019-01-20T12:23:09.566Z,72.94
2019-01-20T12:25:39.073Z,73.01
2019-01-20T12:28:08.614Z,72.99
2019-01-20T12:30:40.076Z,72.99
2019-01-20T12:33:09.788Z,73.13
2019-01-20T12:35:39.289Z,73.19
2019-01-20T12:38:08.904Z,73.23
2019-01-20T12:40:42.329Z,73.29
2019-01-20T12:43:12.190Z,73.39
2019-01-20T12:45:41.745Z,73.47
2019-01-20T12:48:11.268Z,73.58
2019-01-20T12:50:40.872Z,73.71
2019-01-20T12:53:10.392Z,73.84
2019-01-20T12:55:39.926Z,73.90
2019-01-20T12:58:09.836Z,73.89
2019-01-20T13:00:39.372Z,73.96
2019-01-20T13:03:09.856Z,73.92
2019-01-20T13:05:39.408Z,73.90
2019-01-20T13:08:09.047Z,73.90
2019-01-20T13:10:38.660Z,73.92
2019-01-20T13:13:08.186Z,73.85
2019-01-20T13:15:37.790Z,73.85
2019-01-20T13:18:07.367Z,73.89
2019-01-20T13:20:36.905Z,73.89
2019-01-20T13:23:06.651Z,73.87
2019-01-20T13:25:36.177Z,73.98
2019-01-20T13:28:05.859Z,74.11
2019-01-20T13:30:35.380Z,74.21
2019-01-20T13:33:04.975Z,74.31
2019-01-20T13:35:34.488Z,74.43
2019-01-20T13:38:08.294Z,74.50
2019-01-20T13:40:45.625Z,74.58
2019-01-20T13:43:45.774Z,74.60
2019-01-20T13:46:15.311Z,74.58
2019-01-20T13:48:44.900Z,74.58
2019-01-20T13:51:14.455Z,74.66
2019-01-20T13:53:44.104Z,74.73
2019-01-20T13:56:13.710Z,74.85
2019-01-20T13:58:43.273Z,74.97
2019-01-20T14:01:12.902Z,75.12
2019-01-20T14:03:42.461Z,75.22
2019-01-20T14:06:12.024Z,75.38
2019-01-20T14:08:44.356Z,75.46
2019-01-20T14:11:12.925Z,75.60
2019-01-20T14:13:42.461Z,75.71
2019-01-20T14:16:12.141Z,75.91
2019-01-20T14:18:45.370Z,76.11
2019-01-20T14:21:13.096Z,76.25
2019-01-20T14:23:42.666Z,76.50
2019-01-20T14:26:12.211Z,76.78
2019-01-20T14:28:41.826Z,77.05
2019-01-20T14:31:11.459Z,77.35
2019-01-20T14:33:41.019Z,77.72
2019-01-20T14:36:10.641Z,78.09
2019-01-20T14:38:40.253Z,78.47
2019-01-20T14:41:09.805Z,78.80
2019-01-20T14:43:39.365Z,79.25
2019-01-20T14:46:09.001Z,79.70
2019-01-20T14:48:38.620Z,80.12
2019-01-20T14:51:08.155Z,80.46
2019-01-20T14:53:37.733Z,80.79
2019-01-20T14:56:07.349Z,81.09
2019-01-20T14:58:37.293Z,81.37
2019-01-20T15:01:07.082Z,81.59
2019-01-20T15:03:36.657Z,81.83
2019-01-20T15:06:06.616Z,82.08
2019-01-20T15:08:36.193Z,82.32
2019-01-20T15:11:05.931Z,82.65
2019-01-20T15:13:35.520Z,82.90
2019-01-20T15:16:05.128Z,83.05
2019-01-20T15:18:34.707Z,83.31
2019-01-20T15:21:04.249Z,83.43
2019-01-20T15:23:34.066Z,83.53
2019-01-20T15:26:03.631Z,83.64
2019-01-20T15:28:33.268Z,83.79
2019-01-20T15:31:02.827Z,83.83
2019-01-20T15:33:32.402Z,83.86
2019-01-20T15:36:02.036Z,83.94
2019-01-20T15:38:31.593Z,84.01
2019-01-20T15:41:01.161Z,84.08
2019-01-20T15:43:30.718Z,84.08
2019-01-20T15:46:00.288Z,84.03
2019-01-20T15:48:29.911Z,83.99
2019-01-20T15:50:59.466Z,83.95
2019-01-20T15:53:29.049Z,83.94
2019-01-20T15:55:58.857Z,83.93
2019-01-20T15:58:28.421Z,83.93
2019-01-20T16:00:57.976Z,83.92
2019-01-20T16:03:27.556Z,83.94
2019-01-20T16:05:57.106Z,83.99
2019-01-20T16:08:26.674Z,84.10
2019-01-20T16:10:56.228Z,84.19
2019-01-20T16:13:25.801Z,84.19
2019-01-20T16:15:55.415Z,84.16
2019-01-20T16:18:24.985Z,84.17
2019-01-20T16:20:54.536Z,84.21
2019-01-20T16:23:24.255Z,84.22
2019-01-20T16:25:53.869Z,84.23
2019-01-20T16:28:23.418Z,84.23
2019-01-20T16:30:53.056Z,84.21
2019-01-20T16:33:24.943Z,84.18
2019-01-20T16:35:54.071Z,84.15
2019-01-20T16:38:23.621Z,84.15
2019-01-20T16:40:53.166Z,84.20
2019-01-20T16:43:22.804Z,84.26
2019-01-20T16:45:52.351Z,84.31
2019-01-20T16:48:21.996Z,84.39
2019-01-20T16:50:51.550Z,84.41
2019-01-20T16:53:21.166Z,84.45
2019-01-20T16:55:50.728Z,84.53
2019-01-20T16:58:20.279Z,84.48
2019-01-20T17:00:49.983Z,84.48
2019-01-20T17:03:19.528Z,84.49
2019-01-20T17:05:49.103Z,84.55
2019-01-20T17:08:18.657Z,84.62
2019-01-20T17:10:48.224Z,84.70
2019-01-20T17:13:17.840Z,84.78
2019-01-20T17:15:47.432Z,84.80
2019-01-20T17:18:16.981Z,84.84
2019-01-20T17:20:46.626Z,84.88
2019-01-20T17:23:16.455Z,84.82
2019-01-20T17:25:46.085Z,84.86
2019-01-20T17:28:15.643Z,84.88
2019-01-20T17:30:45.653Z,84.93
2019-01-20T17:33:15.382Z,84.92
2019-01-20T17:35:44.952Z,84.93
2019-01-20T17:38:14.501Z,84.97
2019-01-20T17:40:44.144Z,85.06
2019-01-20T17:43:13.757Z,85.13
2019-01-20T17:45:48.566Z,85.18
2019-01-20T17:48:15.121Z,85.18
2019-01-20T17:50:44.692Z,85.13
2019-01-20T17:53:14.514Z,85.11
2019-01-20T17:55:44.129Z,85.18
2019-01-20T17:58:13.721Z,85.20
2019-01-20T18:00:45.091Z,85.23
2019-01-20T18:03:15.902Z,85.30
2019-01-20T18:05:45.692Z,85.38
2019-01-20T18:08:15.337Z,85.42
2019-01-20T18:10:45.033Z,85.51
2019-01-20T18:13:14.605Z,85.59
2019-01-20T18:15:44.165Z,85.61
2019-01-20T18:18:13.906Z,85.58
2019-01-20T18:20:43.711Z,85.60
2019-01-20T18:23:13.328Z,85.63
2019-01-20T18:25:42.951Z,85.67
2019-01-20T18:28:12.528Z,85.69
2019-01-20T18:30:42.157Z,85.76
2019-01-20T18:33:12.208Z,85.73
2019-01-20T18:35:42.091Z,85.73
2019-01-20T18:38:11.692Z,85.74
2019-01-20T18:40:41.729Z,85.72
2019-01-20T18:43:13.579Z,85.71
2019-01-20T18:45:43.255Z,85.75
2019-01-20T18:48:13.234Z,85.74
2019-01-20T18:50:43.209Z,85.69
2019-01-20T18:53:13.248Z,85.76
2019-01-20T18:55:42.840Z,85.86
2019-01-20T18:58:12.414Z,85.91
2019-01-20T19:00:47.316Z,85.94
2019-01-20T19:03:16.866Z,85.97
2019-01-20T19:05:46.422Z,85.97
2019-01-20T19:08:15.974Z,85.99
2019-01-20T19:10:45.553Z,85.96
2019-01-20T19:13:15.119Z,85.92
2019-01-20T19:15:44.693Z,85.89
2019-01-20T19:18:18.927Z,85.86
2019-01-20T19:20:45.518Z,85.91
2019-01-20T19:23:15.102Z,85.89
2019-01-20T19:25:44.656Z,85.83
2019-01-20T19:28:14.239Z,85.79
2019-01-20T19:30:43.793Z,85.78
2019-01-20T19:33:13.343Z,85.84
2019-01-20T19:35:42.921Z,85.78
2019-01-20T19:38:12.469Z,85.67
2019-01-20T19:40:42.041Z,85.67
2019-01-20T19:43:11.664Z,85.66
2019-01-20T19:45:41.219Z,85.66
2019-01-20T19:48:19.675Z,85.64
2019-01-20T19:50:42.211Z,85.59
2019-01-20T19:53:11.864Z,85.63
2019-01-20T19:55:41.417Z,85.56
2019-01-20T19:58:10.983Z,85.49
2019-01-20T20:00:40.555Z,85.63
2019-01-20T20:03:10.101Z,85.66
2019-01-20T20:05:39.683Z,85.68
2019-01-20T20:08:09.308Z,85.71
2019-01-20T20:10:38.871Z,85.72
2019-01-20T20:13:08.423Z,85.68
2019-01-20T20:15:37.999Z,85.72
2019-01-20T20:18:07.822Z,85.68
2019-01-20T20:20:37.401Z,85.71
2019-01-20T20:23:06.956Z,85.75
2019-01-20T20:25:36.668Z,85.75
2019-01-20T20:28:06.458Z,85.71
2019-01-20T20:30:36.737Z,85.71
2019-01-20T20:33:06.459Z,85.67
2019-01-20T20:35:36.172Z,85.71
2019-01-20T20:38:05.893Z,85.70
2019-01-20T20:40:35.640Z,85.66
2019-01-20T20:43:05.266Z,85.66
2019-01-20T20:45:34.856Z,85.63
2019-01-20T20:48:04.533Z,85.68
2019-01-20T20:50:34.106Z,85.73
2019-01-20T20:53:03.658Z,85.79
2019-01-20T20:55:33.399Z,85.76
2019-01-20T20:58:03.025Z,85.70
2019-01-20T21:00:40.071Z,85.65
2019-01-20T21:03:12.231Z,85.58
2019-01-20T21:05:41.797Z,85.47
2019-01-20T21:08:11.479Z,85.47
2019-01-20T21:10:41.052Z,85.41
2019-01-20T21:13:10.766Z,85.39
2019-01-20T21:15:40.370Z,85.41
2019-01-20T21:18:09.944Z,85.41
2019-01-20T21:20:39.486Z,85.31
2019-01-20T21:23:12.358Z,85.25
2019-01-20T21:25:40.341Z,85.22
2019-01-20T21:28:09.918Z,85.20
2019-01-20T21:30:39.475Z,85.22
2019-01-20T21:33:09.050Z,85.19
2019-01-20T21:35:38.745Z,85.19
2019-01-20T21:38:08.458Z,85.17
2019-01-20T21:40:38.018Z,85.17
2019-01-20T21:43:07.668Z,85.19
2019-01-20T21:45:37.391Z,85.22
2019-01-20T21:48:07.136Z,85.22
2019-01-20T21:50:36.759Z,85.19
2019-01-20T21:53:06.401Z,85.11
2019-01-20T21:55:36.134Z,85.09
2019-01-20T21:58:05.850Z,85.08
2019-01-20T22:00:35.488Z,85.09
2019-01-20T22:03:05.144Z,85.19
2019-01-20T22:05:34.735Z,85.25
2019-01-20T22:08:04.404Z,85.30
2019-01-20T22:10:34.369Z,85.35
2019-01-20T22:13:03.963Z,85.41
2019-01-20T22:15:33.708Z,85.39
2019-01-20T22:18:03.337Z,85.31
2019-01-20T22:20:32.992Z,85.19
2019-01-20T22:23:02.600Z,85.26
2019-01-20T22:25:32.327Z,85.35
2019-01-20T22:28:02.398Z,85.38
2019-01-20T22:30:31.963Z,85.42
2019-01-20T22:33:01.815Z,85.36
2019-01-20T22:35:31.368Z,85.28
2019-01-20T22:38:01.011Z,85.16
2019-01-20T22:40:30.657Z,84.98
2019-01-20T22:43:00.230Z,84.88
2019-01-20T22:45:29.852Z,84.83
2019-01-20T22:47:59.441Z,84.84
2019-01-20T22:50:29.669Z,84.85
2019-01-20T22:52:59.442Z,84.94
2019-01-20T22:55:28.994Z,84.87
2019-01-20T22:57:58.561Z,84.79
2019-01-20T23:00:43.945Z,84.75
2019-01-20T23:03:13.773Z,84.76
2019-01-20T23:05:43.337Z,84.79
2019-01-20T23:08:12.930Z,84.85
2019-01-20T23:10:42.622Z,84.84
2019-01-20T23:13:12.565Z,84.80
2019-01-20T23:15:42.252Z,84.71
2019-01-20T23:18:11.924Z,84.69
2019-01-20T23:20:41.515Z,84.73
2019-01-20T23:23:11.083Z,84.70
2019-01-20T23:25:40.736Z,84.64
2019-01-20T23:28:10.384Z,84.60
2019-01-20T23:30:40.069Z,84.69
2019-01-20T23:33:09.644Z,84.78
2019-01-20T23:35:39.244Z,84.75
2019-01-20T23:38:08.798Z,84.65
2019-01-20T23:40:38.452Z,84.58
2019-01-20T23:43:08.023Z,84.54
2019-01-20T23:45:37.609Z,84.50
2019-01-20T23:48:07.348Z,84.52
2019-01-20T23:50:37.021Z,84.56
2019-01-20T23:53:06.805Z,84.56
2019-01-20T23:55:36.430Z,84.57
2019-01-20T23:58:06.613Z,84.61
